sensor_id;sensor_type;location;lat;lon;timestamp;P1;durP1;ratioP1;P2;durP2;ratioP2
53674;SDS011;39574;50.534;8.500;2023-07-22T00:02:57;8.2;;;4.5;;
53674;SDS011;39574;50.534;8.500;2023-07-22T00:07:56;8.5;;;4.4;;
53674;SDS011;39574;50.534;8.500;2023-07-22T00:12:56;8.2;;;4.4;;
53674;SDS011;39574;50.534;8.500;2023-07-22T00:17:55;8.1;;;4.4;;
53674;SDS011;39574;50.534;8.500;2023-07-22T00:22:54;8.1;;;4.4;;
53674;SDS011;39574;50.534;8.500;2023-07-22T00:27:53;8.0;;;4.4;;
53674;SDS011;39574;50.534;8.500;2023-07-22T00:32:53;8.2;;;4.5;;
53674;SDS011;39574;50.534;8.500;2023-07-22T00:37:52;8.6;;;4.6;;
53674;SDS011;39574;50.534;8.500;2023-07-22T00:42:51;8.4;;;4.7;;
53674;SDS011;39574;50.534;8.500;2023-07-22T00:47:50;8.6;;;4.7;;
53674;SDS011;39574;50.534;8.500;2023-07-22T00:52:50;8.4;;;4.6;;
53674;SDS011;39574;50.534;8.500;2023-07-22T00:57:49;8.8;;;4.5;;
53674;SDS011;39574;50.534;8.500;2023-07-22T01:02:48;8.5;;;4.6;;
53674;SDS011;39574;50.534;8.500;2023-07-22T01:07:47;8.8;;;4.6;;
53674;SDS011;39574;50.534;8.500;2023-07-22T01:12:46;8.7;;;4.8;;
53674;SDS011;39574;50.534;8.500;2023-07-22T01:17:46;8.6;;;4.7;;
53674;SDS011;39574;50.534;8.500;2023-07-22T01:22:48;8.6;;;4.8;;
53674;SDS011;39574;50.534;8.500;2023-07-22T01:27:44;8.7;;;5.0;;
53674;SDS011;39574;50.534;8.500;2023-07-22T01:32:43;8.6;;;4.9;;
53674;SDS011;39574;50.534;8.500;2023-07-22T01:37:42;8.7;;;4.8;;
53674;SDS011;39574;50.534;8.500;2023-07-22T01:42:42;8.9;;;4.8;;
53674;SDS011;39574;50.534;8.500;2023-07-22T01:47:41;9.1;;;5.0;;
53674;SDS011;39574;50.534;8.500;2023-07-22T01:52:40;9.2;;;5.2;;
53674;SDS011;39574;50.534;8.500;2023-07-22T01:57:39;9.4;;;5.5;;
53674;SDS011;39574;50.534;8.500;2023-07-22T02:02:38;10.2;;;5.9;;
53674;SDS011;39574;50.534;8.500;2023-07-22T02:07:38;10.3;;;6.0;;
53674;SDS011;39574;50.534;8.500;2023-07-22T02:17:36;10.6;;;6.1;;
53674;SDS011;39574;50.534;8.500;2023-07-22T02:22:35;10.3;;;6.0;;
53674;SDS011;39574;50.534;8.500;2023-07-22T02:27:34;9.8;;;5.8;;
53674;SDS011;39574;50.534;8.500;2023-07-22T02:32:33;11.2;;;6.0;;
53674;SDS011;39574;50.534;8.500;2023-07-22T02:37:33;11.9;;;6.2;;
53674;SDS011;39574;50.534;8.500;2023-07-22T02:42:33;11.4;;;6.2;;
53674;SDS011;39574;50.534;8.500;2023-07-22T02:47:31;10.9;;;6.1;;
53674;SDS011;39574;50.534;8.500;2023-07-22T02:52:30;10.2;;;6.0;;
53674;SDS011;39574;50.534;8.500;2023-07-22T02:57:29;10.0;;;5.8;;
53674;SDS011;39574;50.534;8.500;2023-07-22T03:02:28;10.2;;;5.6;;
53674;SDS011;39574;50.534;8.500;2023-07-22T03:07:27;9.8;;;5.4;;
53674;SDS011;39574;50.534;8.500;2023-07-22T03:12:26;9.6;;;5.2;;
53674;SDS011;39574;50.534;8.500;2023-07-22T03:17:26;9.6;;;5.2;;
53674;SDS011;39574;50.534;8.500;2023-07-22T03:22:25;9.4;;;5.1;;
53674;SDS011;39574;50.534;8.500;2023-07-22T03:27:24;9.5;;;5.1;;
53674;SDS011;39574;50.534;8.500;2023-07-22T03:32:23;10.2;;;5.1;;
53674;SDS011;39574;50.534;8.500;2023-07-22T03:37:22;9.6;;;4.9;;
53674;SDS011;39574;50.534;8.500;2023-07-22T03:42:22;9.3;;;4.9;;
53674;SDS011;39574;50.534;8.500;2023-07-22T03:47:21;9.1;;;4.7;;
53674;SDS011;39574;50.534;8.500;2023-07-22T03:52:20;8.4;;;4.6;;
53674;SDS011;39574;50.534;8.500;2023-07-22T03:57:19;8.3;;;4.6;;
53674;SDS011;39574;50.534;8.500;2023-07-22T04:02:19;8.6;;;4.6;;
53674;SDS011;39574;50.534;8.500;2023-07-22T04:07:18;9.0;;;4.7;;
53674;SDS011;39574;50.534;8.500;2023-07-22T04:12:17;9.3;;;4.8;;
53674;SDS011;39574;50.534;8.500;2023-07-22T04:17:16;9.4;;;5.0;;
53674;SDS011;39574;50.534;8.500;2023-07-22T04:22:16;9.8;;;5.1;;
53674;SDS011;39574;50.534;8.500;2023-07-22T04:27:15;9.4;;;5.3;;
53674;SDS011;39574;50.534;8.500;2023-07-22T04:32:13;9.3;;;5.4;;
53674;SDS011;39574;50.534;8.500;2023-07-22T04:42:12;9.3;;;5.5;;
53674;SDS011;39574;50.534;8.500;2023-07-22T04:47:11;9.4;;;5.5;;
53674;SDS011;39574;50.534;8.500;2023-07-22T04:52:14;9.9;;;5.7;;
53674;SDS011;39574;50.534;8.500;2023-07-22T04:57:10;9.8;;;5.6;;
53674;SDS011;39574;50.534;8.500;2023-07-22T05:02:08;9.6;;;5.4;;
53674;SDS011;39574;50.534;8.500;2023-07-22T05:07:07;9.7;;;5.5;;
53674;SDS011;39574;50.534;8.500;2023-07-22T05:12:07;9.3;;;5.5;;
53674;SDS011;39574;50.534;8.500;2023-07-22T05:17:07;9.7;;;5.5;;
53674;SDS011;39574;50.534;8.500;2023-07-22T05:22:05;10.6;;;5.8;;
53674;SDS011;39574;50.534;8.500;2023-07-22T05:27:04;11.4;;;6.6;;
53674;SDS011;39574;50.534;8.500;2023-07-22T05:32:03;12.1;;;7.1;;
53674;SDS011;39574;50.534;8.500;2023-07-22T05:37:02;12.1;;;7.4;;
53674;SDS011;39574;50.534;8.500;2023-07-22T05:42:02;12.7;;;7.6;;
53674;SDS011;39574;50.534;8.500;2023-07-22T05:47:01;12.1;;;7.2;;
53674;SDS011;39574;50.534;8.500;2023-07-22T05:52:00;12.7;;;7.4;;
53674;SDS011;39574;50.534;8.500;2023-07-22T05:56:59;12.6;;;7.5;;
53674;SDS011;39574;50.534;8.500;2023-07-22T06:01:58;12.1;;;7.4;;
53674;SDS011;39574;50.534;8.500;2023-07-22T06:06:57;11.8;;;7.3;;
53674;SDS011;39574;50.534;8.500;2023-07-22T06:11:57;11.5;;;7.2;;
53674;SDS011;39574;50.534;8.500;2023-07-22T06:16:56;11.8;;;7.2;;
53674;SDS011;39574;50.534;8.500;2023-07-22T06:21:55;12.1;;;7.2;;
53674;SDS011;39574;50.534;8.500;2023-07-22T06:26:54;12.9;;;7.4;;
53674;SDS011;39574;50.534;8.500;2023-07-22T06:31:53;12.6;;;7.5;;
53674;SDS011;39574;50.534;8.500;2023-07-22T06:36:53;12.3;;;7.6;;
53674;SDS011;39574;50.534;8.500;2023-07-22T06:41:52;12.1;;;7.3;;
53674;SDS011;39574;50.534;8.500;2023-07-22T06:46:51;12.6;;;6.9;;
53674;SDS011;39574;50.534;8.500;2023-07-22T06:51:50;12.0;;;6.8;;
53674;SDS011;39574;50.534;8.500;2023-07-22T06:56:50;11.4;;;6.5;;
53674;SDS011;39574;50.534;8.500;2023-07-22T07:01:49;10.5;;;6.4;;
53674;SDS011;39574;50.534;8.500;2023-07-22T07:06:48;10.3;;;6.4;;
53674;SDS011;39574;50.534;8.500;2023-07-22T07:11:48;10.2;;;6.3;;
53674;SDS011;39574;50.534;8.500;2023-07-22T07:16:47;10.3;;;6.2;;
53674;SDS011;39574;50.534;8.500;2023-07-22T07:21:47;9.9;;;5.8;;
53674;SDS011;39574;50.534;8.500;2023-07-22T07:26:46;10.0;;;5.8;;
53674;SDS011;39574;50.534;8.500;2023-07-22T07:31:45;9.7;;;5.4;;
53674;SDS011;39574;50.534;8.500;2023-07-22T07:36:44;9.5;;;5.3;;
53674;SDS011;39574;50.534;8.500;2023-07-22T07:41:44;9.5;;;5.1;;
53674;SDS011;39574;50.534;8.500;2023-07-22T07:46:43;9.2;;;5.1;;
53674;SDS011;39574;50.534;8.500;2023-07-22T07:51:42;8.9;;;5.2;;
53674;SDS011;39574;50.534;8.500;2023-07-22T07:56:42;8.7;;;5.1;;
53674;SDS011;39574;50.534;8.500;2023-07-22T08:01:41;8.4;;;5.0;;
53674;SDS011;39574;50.534;8.500;2023-07-22T08:06:41;9.2;;;4.9;;
53674;SDS011;39574;50.534;8.500;2023-07-22T08:11:40;9.5;;;4.9;;
53674;SDS011;39574;50.534;8.500;2023-07-22T08:16:39;9.6;;;4.9;;
53674;SDS011;39574;50.534;8.500;2023-07-22T08:21:39;9.0;;;4.8;;
53674;SDS011;39574;50.534;8.500;2023-07-22T08:26:38;8.8;;;4.8;;
53674;SDS011;39574;50.534;8.500;2023-07-22T08:31:38;9.0;;;4.8;;
53674;SDS011;39574;50.534;8.500;2023-07-22T08:36:37;8.8;;;4.9;;
53674;SDS011;39574;50.534;8.500;2023-07-22T08:41:37;9.5;;;5.0;;
53674;SDS011;39574;50.534;8.500;2023-07-22T08:46:36;9.7;;;5.0;;
53674;SDS011;39574;50.534;8.500;2023-07-22T08:51:36;9.6;;;5.0;;
53674;SDS011;39574;50.534;8.500;2023-07-22T08:56:35;9.6;;;4.9;;
53674;SDS011;39574;50.534;8.500;2023-07-22T09:01:34;9.3;;;5.1;;
53674;SDS011;39574;50.534;8.500;2023-07-22T09:06:34;9.7;;;5.3;;
53674;SDS011;39574;50.534;8.500;2023-07-22T09:11:34;9.3;;;5.2;;
53674;SDS011;39574;50.534;8.500;2023-07-22T09:16:33;10.0;;;5.1;;
53674;SDS011;39574;50.534;8.500;2023-07-22T09:21:33;9.6;;;4.8;;
53674;SDS011;39574;50.534;8.500;2023-07-22T09:26:32;9.6;;;4.7;;
53674;SDS011;39574;50.534;8.500;2023-07-22T09:31:31;9.2;;;4.6;;
53674;SDS011;39574;50.534;8.500;2023-07-22T09:36:31;10.5;;;4.5;;
53674;SDS011;39574;50.534;8.500;2023-07-22T09:41:31;10.4;;;4.4;;
53674;SDS011;39574;50.534;8.500;2023-07-22T09:46:31;10.1;;;4.3;;
53674;SDS011;39574;50.534;8.500;2023-07-22T09:51:32;9.1;;;4.2;;
53674;SDS011;39574;50.534;8.500;2023-07-22T09:56:29;8.5;;;4.3;;
53674;SDS011;39574;50.534;8.500;2023-07-22T10:01:29;8.6;;;4.4;;
53674;SDS011;39574;50.534;8.500;2023-07-22T10:06:28;8.7;;;4.5;;
53674;SDS011;39574;50.534;8.500;2023-07-22T10:11:29;9.8;;;4.6;;
53674;SDS011;39574;50.534;8.500;2023-07-22T10:16:27;9.3;;;4.5;;
53674;SDS011;39574;50.534;8.500;2023-07-22T10:21:27;8.6;;;4.5;;
53674;SDS011;39574;50.534;8.500;2023-07-22T10:26:26;8.0;;;4.3;;
53674;SDS011;39574;50.534;8.500;2023-07-22T10:31:29;8.3;;;4.4;;
53674;SDS011;39574;50.534;8.500;2023-07-22T10:36:29;8.4;;;4.2;;
53674;SDS011;39574;50.534;8.500;2023-07-22T10:41:25;8.8;;;4.2;;
53674;SDS011;39574;50.534;8.500;2023-07-22T10:46:32;8.4;;;4.1;;
53674;SDS011;39574;50.534;8.500;2023-07-22T10:51:24;8.0;;;3.9;;
53674;SDS011;39574;50.534;8.500;2023-07-22T10:56:24;8.7;;;3.9;;
53674;SDS011;39574;50.534;8.500;2023-07-22T11:01:24;8.1;;;3.7;;
53674;SDS011;39574;50.534;8.500;2023-07-22T11:06:23;8.0;;;3.9;;
53674;SDS011;39574;50.534;8.500;2023-07-22T11:11:33;7.8;;;3.8;;
53674;SDS011;39574;50.534;8.500;2023-07-22T11:16:22;7.6;;;3.7;;
53674;SDS011;39574;50.534;8.500;2023-07-22T11:21:22;7.7;;;3.7;;
53674;SDS011;39574;50.534;8.500;2023-07-22T11:26:21;7.5;;;3.8;;
53674;SDS011;39574;50.534;8.500;2023-07-22T11:31:21;7.6;;;3.8;;
53674;SDS011;39574;50.534;8.500;2023-07-22T11:36:20;7.3;;;3.7;;
53674;SDS011;39574;50.534;8.500;2023-07-22T11:41:20;7.7;;;3.7;;
53674;SDS011;39574;50.534;8.500;2023-07-22T11:46:19;7.6;;;3.5;;
53674;SDS011;39574;50.534;8.500;2023-07-22T11:51:19;6.9;;;3.4;;
53674;SDS011;39574;50.534;8.500;2023-07-22T11:56:20;7.6;;;3.6;;
53674;SDS011;39574;50.534;8.500;2023-07-22T12:01:18;10.5;;;3.7;;
53674;SDS011;39574;50.534;8.500;2023-07-22T12:06:18;9.8;;;3.6;;
53674;SDS011;39574;50.534;8.500;2023-07-22T12:11:18;8.9;;;3.5;;
53674;SDS011;39574;50.534;8.500;2023-07-22T12:16:21;7.6;;;3.5;;
53674;SDS011;39574;50.534;8.500;2023-07-22T12:21:17;7.5;;;3.5;;
53674;SDS011;39574;50.534;8.500;2023-07-22T12:26:16;7.9;;;3.5;;
53674;SDS011;39574;50.534;8.500;2023-07-22T12:31:16;7.8;;;3.5;;
53674;SDS011;39574;50.534;8.500;2023-07-22T12:36:15;8.1;;;3.5;;
53674;SDS011;39574;50.534;8.500;2023-07-22T12:41:15;7.9;;;3.7;;
53674;SDS011;39574;50.534;8.500;2023-07-22T12:46:15;7.7;;;3.6;;
53674;SDS011;39574;50.534;8.500;2023-07-22T12:51:14;7.3;;;3.6;;
53674;SDS011;39574;50.534;8.500;2023-07-22T12:56:14;6.9;;;3.5;;
53674;SDS011;39574;50.534;8.500;2023-07-22T13:01:14;6.8;;;3.4;;
53674;SDS011;39574;50.534;8.500;2023-07-22T13:06:13;6.8;;;3.4;;
53674;SDS011;39574;50.534;8.500;2023-07-22T13:11:13;6.9;;;3.5;;
53674;SDS011;39574;50.534;8.500;2023-07-22T13:16:13;7.1;;;3.6;;
53674;SDS011;39574;50.534;8.500;2023-07-22T13:21:12;7.1;;;3.7;;
53674;SDS011;39574;50.534;8.500;2023-07-22T13:26:12;7.9;;;3.7;;
53674;SDS011;39574;50.534;8.500;2023-07-22T13:31:12;8.6;;;3.9;;
53674;SDS011;39574;50.534;8.500;2023-07-22T13:36:11;8.3;;;4.0;;
53674;SDS011;39574;50.534;8.500;2023-07-22T13:46:11;8.2;;;3.8;;
53674;SDS011;39574;50.534;8.500;2023-07-22T13:51:10;8.1;;;3.9;;
53674;SDS011;39574;50.534;8.500;2023-07-22T13:56:10;7.6;;;3.7;;
53674;SDS011;39574;50.534;8.500;2023-07-22T14:01:10;7.8;;;3.6;;
53674;SDS011;39574;50.534;8.500;2023-07-22T14:06:09;7.8;;;3.8;;
53674;SDS011;39574;50.534;8.500;2023-07-22T14:11:09;8.0;;;3.9;;
53674;SDS011;39574;50.534;8.500;2023-07-22T14:16:09;8.9;;;4.0;;
53674;SDS011;39574;50.534;8.500;2023-07-22T14:21:08;8.5;;;3.9;;
53674;SDS011;39574;50.534;8.500;2023-07-22T14:26:08;8.4;;;4.0;;
53674;SDS011;39574;50.534;8.500;2023-07-22T14:31:08;7.8;;;3.9;;
53674;SDS011;39574;50.534;8.500;2023-07-22T14:36:08;7.5;;;4.0;;
53674;SDS011;39574;50.534;8.500;2023-07-22T14:41:07;8.2;;;4.0;;
53674;SDS011;39574;50.534;8.500;2023-07-22T14:46:07;8.2;;;4.0;;
53674;SDS011;39574;50.534;8.500;2023-07-22T14:51:07;8.4;;;4.0;;
53674;SDS011;39574;50.534;8.500;2023-07-22T14:56:07;8.6;;;4.2;;
53674;SDS011;39574;50.534;8.500;2023-07-22T15:01:06;8.6;;;4.3;;
53674;SDS011;39574;50.534;8.500;2023-07-22T15:06:06;8.1;;;4.1;;
53674;SDS011;39574;50.534;8.500;2023-07-22T15:11:06;7.5;;;4.0;;
53674;SDS011;39574;50.534;8.500;2023-07-22T15:16:06;8.1;;;4.0;;
53674;SDS011;39574;50.534;8.500;2023-07-22T15:21:05;8.3;;;4.0;;
53674;SDS011;39574;50.534;8.500;2023-07-22T15:26:05;8.4;;;4.0;;
53674;SDS011;39574;50.534;8.500;2023-07-22T15:31:05;8.2;;;4.0;;
53674;SDS011;39574;50.534;8.500;2023-07-22T15:36:05;9.3;;;4.1;;
53674;SDS011;39574;50.534;8.500;2023-07-22T15:41:04;8.6;;;4.0;;
53674;SDS011;39574;50.534;8.500;2023-07-22T15:46:04;8.7;;;4.0;;
53674;SDS011;39574;50.534;8.500;2023-07-22T15:51:04;8.8;;;4.0;;
53674;SDS011;39574;50.534;8.500;2023-07-22T15:56:04;8.7;;;4.0;;
53674;SDS011;39574;50.534;8.500;2023-07-22T16:01:04;8.3;;;4.1;;
53674;SDS011;39574;50.534;8.500;2023-07-22T16:06:03;7.9;;;4.1;;
53674;SDS011;39574;50.534;8.500;2023-07-22T16:11:03;8.3;;;4.3;;
53674;SDS011;39574;50.534;8.500;2023-07-22T16:16:03;8.1;;;4.2;;
53674;SDS011;39574;50.534;8.500;2023-07-22T16:21:03;8.0;;;4.0;;
53674;SDS011;39574;50.534;8.500;2023-07-22T16:26:03;7.7;;;3.8;;
53674;SDS011;39574;50.534;8.500;2023-07-22T16:31:02;9.7;;;3.8;;
53674;SDS011;39574;50.534;8.500;2023-07-22T16:36:02;9.7;;;4.0;;
53674;SDS011;39574;50.534;8.500;2023-07-22T16:41:02;9.3;;;3.8;;
53674;SDS011;39574;50.534;8.500;2023-07-22T16:46:02;8.7;;;3.8;;
53674;SDS011;39574;50.534;8.500;2023-07-22T16:51:01;7.9;;;3.9;;
53674;SDS011;39574;50.534;8.500;2023-07-22T16:56:01;7.9;;;4.0;;
53674;SDS011;39574;50.534;8.500;2023-07-22T17:01:01;7.6;;;4.0;;
53674;SDS011;39574;50.534;8.500;2023-07-22T17:06:01;8.5;;;4.2;;
53674;SDS011;39574;50.534;8.500;2023-07-22T17:11:00;7.8;;;4.0;;
53674;SDS011;39574;50.534;8.500;2023-07-22T17:16:00;8.1;;;4.1;;
53674;SDS011;39574;50.534;8.500;2023-07-22T17:21:00;7.6;;;3.9;;
53674;SDS011;39574;50.534;8.500;2023-07-22T17:26:00;8.7;;;4.0;;
53674;SDS011;39574;50.534;8.500;2023-07-22T17:30:59;8.6;;;4.0;;
53674;SDS011;39574;50.534;8.500;2023-07-22T17:35:59;8.1;;;4.0;;
53674;SDS011;39574;50.534;8.500;2023-07-22T17:40:59;8.1;;;3.9;;
53674;SDS011;39574;50.534;8.500;2023-07-22T17:45:58;8.1;;;3.8;;
53674;SDS011;39574;50.534;8.500;2023-07-22T17:50:58;8.8;;;3.8;;
53674;SDS011;39574;50.534;8.500;2023-07-22T17:55:58;8.2;;;3.8;;
53674;SDS011;39574;50.534;8.500;2023-07-22T18:00:57;7.9;;;3.9;;
53674;SDS011;39574;50.534;8.500;2023-07-22T18:05:58;8.9;;;3.9;;
53674;SDS011;39574;50.534;8.500;2023-07-22T18:10:57;8.4;;;3.8;;
53674;SDS011;39574;50.534;8.500;2023-07-22T18:15:56;8.5;;;3.7;;
53674;SDS011;39574;50.534;8.500;2023-07-22T18:20:56;8.0;;;3.7;;
53674;SDS011;39574;50.534;8.500;2023-07-22T18:25:56;8.5;;;3.7;;
53674;SDS011;39574;50.534;8.500;2023-07-22T18:30:55;8.6;;;4.0;;
53674;SDS011;39574;50.534;8.500;2023-07-22T18:35:55;8.2;;;4.1;;
53674;SDS011;39574;50.534;8.500;2023-07-22T18:40:54;8.7;;;4.3;;
53674;SDS011;39574;50.534;8.500;2023-07-22T18:45:54;8.0;;;4.2;;
53674;SDS011;39574;50.534;8.500;2023-07-22T18:50:54;8.1;;;4.3;;
53674;SDS011;39574;50.534;8.500;2023-07-22T18:55:53;8.7;;;4.4;;
53674;SDS011;39574;50.534;8.500;2023-07-22T19:00:53;9.1;;;4.4;;
53674;SDS011;39574;50.534;8.500;2023-07-22T19:05:53;9.3;;;4.3;;
53674;SDS011;39574;50.534;8.500;2023-07-22T19:10:52;8.9;;;4.2;;
53674;SDS011;39574;50.534;8.500;2023-07-22T19:15:52;8.7;;;4.2;;
53674;SDS011;39574;50.534;8.500;2023-07-22T19:20:55;8.6;;;4.2;;
53674;SDS011;39574;50.534;8.500;2023-07-22T19:25:51;8.3;;;4.1;;
53674;SDS011;39574;50.534;8.500;2023-07-22T19:30:51;8.5;;;4.2;;
53674;SDS011;39574;50.534;8.500;2023-07-22T19:36:06;8.7;;;4.3;;
53674;SDS011;39574;50.534;8.500;2023-07-22T19:40:51;8.7;;;4.3;;
53674;SDS011;39574;50.534;8.500;2023-07-22T19:45:58;8.7;;;4.3;;
53674;SDS011;39574;50.534;8.500;2023-07-22T19:50:53;9.3;;;4.5;;
53674;SDS011;39574;50.534;8.500;2023-07-22T19:55:48;8.9;;;4.4;;
53674;SDS011;39574;50.534;8.500;2023-07-22T20:00:48;8.8;;;4.4;;
53674;SDS011;39574;50.534;8.500;2023-07-22T20:05:47;9.0;;;4.2;;
53674;SDS011;39574;50.534;8.500;2023-07-22T20:10:48;9.2;;;4.3;;
53674;SDS011;39574;50.534;8.500;2023-07-22T20:15:46;8.9;;;4.3;;
53674;SDS011;39574;50.534;8.500;2023-07-22T20:20:46;9.4;;;4.4;;
53674;SDS011;39574;50.534;8.500;2023-07-22T20:25:46;10.0;;;4.7;;
53674;SDS011;39574;50.534;8.500;2023-07-22T20:30:47;9.8;;;4.7;;
53674;SDS011;39574;50.534;8.500;2023-07-22T20:35:45;9.9;;;4.7;;
53674;SDS011;39574;50.534;8.500;2023-07-22T20:40:45;9.8;;;4.6;;
53674;SDS011;39574;50.534;8.500;2023-07-22T20:45:44;10.0;;;4.6;;
53674;SDS011;39574;50.534;8.500;2023-07-22T20:50:43;10.0;;;4.7;;
53674;SDS011;39574;50.534;8.500;2023-07-22T20:55:43;9.8;;;4.7;;
53674;SDS011;39574;50.534;8.500;2023-07-22T21:00:42;11.1;;;4.8;;
53674;SDS011;39574;50.534;8.500;2023-07-22T21:05:42;10.9;;;4.7;;
53674;SDS011;39574;50.534;8.500;2023-07-22T21:10:41;10.5;;;4.7;;
53674;SDS011;39574;50.534;8.500;2023-07-22T21:15:41;9.9;;;4.6;;
53674;SDS011;39574;50.534;8.500;2023-07-22T21:20:40;9.7;;;4.5;;
53674;SDS011;39574;50.534;8.500;2023-07-22T21:25:39;10.1;;;4.7;;
53674;SDS011;39574;50.534;8.500;2023-07-22T21:30:39;10.6;;;4.7;;
53674;SDS011;39574;50.534;8.500;2023-07-22T21:35:39;10.4;;;4.7;;
53674;SDS011;39574;50.534;8.500;2023-07-22T21:40:38;10.7;;;4.8;;
53674;SDS011;39574;50.534;8.500;2023-07-22T21:45:37;10.6;;;4.9;;
53674;SDS011;39574;50.534;8.500;2023-07-22T21:50:37;10.4;;;4.8;;
53674;SDS011;39574;50.534;8.500;2023-07-22T21:55:36;10.0;;;4.9;;
53674;SDS011;39574;50.534;8.500;2023-07-22T22:00:36;9.8;;;4.8;;
53674;SDS011;39574;50.534;8.500;2023-07-22T22:05:35;9.3;;;4.8;;
53674;SDS011;39574;50.534;8.500;2023-07-22T22:10:35;9.6;;;4.8;;
53674;SDS011;39574;50.534;8.500;2023-07-22T22:15:34;9.4;;;4.9;;
53674;SDS011;39574;50.534;8.500;2023-07-22T22:20:34;9.5;;;5.0;;
53674;SDS011;39574;50.534;8.500;2023-07-22T22:25:33;9.7;;;5.0;;
53674;SDS011;39574;50.534;8.500;2023-07-22T22:30:32;9.9;;;4.8;;
53674;SDS011;39574;50.534;8.500;2023-07-22T22:35:32;10.3;;;5.0;;
53674;SDS011;39574;50.534;8.500;2023-07-22T22:40:31;9.8;;;4.9;;
53674;SDS011;39574;50.534;8.500;2023-07-22T22:45:30;9.8;;;4.8;;
53674;SDS011;39574;50.534;8.500;2023-07-22T22:50:30;9.5;;;4.8;;
53674;SDS011;39574;50.534;8.500;2023-07-22T22:55:29;9.3;;;4.6;;
53674;SDS011;39574;50.534;8.500;2023-07-22T23:00:29;9.5;;;4.6;;
53674;SDS011;39574;50.534;8.500;2023-07-22T23:05:28;9.5;;;4.5;;
53674;SDS011;39574;50.534;8.500;2023-07-22T23:10:27;9.8;;;4.5;;
53674;SDS011;39574;50.534;8.500;2023-07-22T23:15:27;9.4;;;4.4;;
53674;SDS011;39574;50.534;8.500;2023-07-22T23:20:26;8.8;;;4.3;;
53674;SDS011;39574;50.534;8.500;2023-07-22T23:25:25;8.7;;;4.3;;
53674;SDS011;39574;50.534;8.500;2023-07-22T23:30:25;8.8;;;4.6;;
53674;SDS011;39574;50.534;8.500;2023-07-22T23:35:24;8.9;;;4.7;;
53674;SDS011;39574;50.534;8.500;2023-07-22T23:40:24;9.0;;;4.7;;
53674;SDS011;39574;50.534;8.500;2023-07-22T23:45:23;8.9;;;4.8;;
53674;SDS011;39574;50.534;8.500;2023-07-22T23:50:22;8.9;;;4.5;;
53674;SDS011;39574;50.534;8.500;2023-07-22T23:55:22;9.0;;;4.5;;
